sensor_id;sensor_type;location;lat;lon;timestamp;pressure;altitude;pressure_sealevel;temperature;humidity
49393;BME280;35268;42.642;23.308;2023-03-30T00:00:32;94414.22;;;4.35;46.44
49393;BME280;35268;42.642;23.308;2023-03-30T00:02:58;94395.47;;;4.27;46.38
49393;BME280;35268;42.642;23.308;2023-03-30T00:05:27;94398.13;;;4.32;46.60
49393;BME280;35268;42.642;23.308;2023-03-30T00:07:53;94401.28;;;4.29;45.91
49393;BME280;35268;42.642;23.308;2023-03-30T00:10:18;94414.47;;;4.29;46.49
49393;BME280;35268;42.642;23.308;2023-03-30T00:12:46;94419.25;;;4.32;45.94
49393;BME280;35268;42.642;23.308;2023-03-30T00:15:14;94407.09;;;4.31;45.58
49393;BME280;35268;42.642;23.308;2023-03-30T00:17:40;94419.25;;;4.37;45.20
49393;BME280;35268;42.642;23.308;2023-03-30T00:20:07;94421.09;;;4.36;45.46
49393;BME280;35268;42.642;23.308;2023-03-30T00:22:39;94419.25;;;4.42;45.24
49393;BME280;35268;42.642;23.308;2023-03-30T00:25:07;94421.88;;;4.37;45.70
49393;BME280;35268;42.642;23.308;2023-03-30T00:27:35;94399.44;;;4.34;45.45
49393;BME280;35268;42.642;23.308;2023-03-30T00:30:01;94400.50;;;4.28;45.57
49393;BME280;35268;42.642;23.308;2023-03-30T00:32:27;94409.19;;;4.29;45.88
49393;BME280;35268;42.642;23.308;2023-03-30T00:34:52;94411.00;;;4.23;46.41
49393;BME280;35268;42.642;23.308;2023-03-30T00:37:18;94403.38;;;4.21;47.06
49393;BME280;35268;42.642;23.308;2023-03-30T00:39:43;94421.53;;;4.13;47.84
49393;BME280;35268;42.642;23.308;2023-03-30T00:42:16;94427.06;;;4.01;48.70
49393;BME280;35268;42.642;23.308;2023-03-30T00:47:26;94403.31;;;4.01;49.44
49393;BME280;35268;42.642;23.308;2023-03-30T00:49:53;94417.03;;;4.03;49.38
49393;BME280;35268;42.642;23.308;2023-03-30T00:52:19;94404.34;;;4.00;49.50
49393;BME280;35268;42.642;23.308;2023-03-30T00:54:50;94421.28;;;4.09;49.14
49393;BME280;35268;42.642;23.308;2023-03-30T00:57:18;94442.09;;;4.06;49.22
49393;BME280;35268;42.642;23.308;2023-03-30T00:59:47;94412.00;;;4.07;49.20
49393;BME280;35268;42.642;23.308;2023-03-30T01:02:13;94419.19;;;4.16;48.97
49393;BME280;35268;42.642;23.308;2023-03-30T01:04:40;94418.91;;;4.13;49.24
49393;BME280;35268;42.642;23.308;2023-03-30T01:07:06;94409.13;;;4.03;49.52
49393;BME280;35268;42.642;23.308;2023-03-30T01:09:31;94417.81;;;4.04;49.67
49393;BME280;35268;42.642;23.308;2023-03-30T01:11:57;94415.97;;;3.99;49.26
49393;BME280;35268;42.642;23.308;2023-03-30T01:14:22;94413.84;;;4.01;48.90
49393;BME280;35268;42.642;23.308;2023-03-30T01:38:55;94401.28;;;4.24;46.15
49393;BME280;35268;42.642;23.308;2023-03-30T01:41:36;94408.66;;;4.27;46.37
49393;BME280;35268;42.642;23.308;2023-03-30T01:47:02;94404.66;;;4.14;47.58
49393;BME280;35268;42.642;23.308;2023-03-30T01:52:25;94405.44;;;4.09;48.12
49393;BME280;35268;42.642;23.308;2023-03-30T01:55:02;94404.63;;;4.04;47.97
49393;BME280;35268;42.642;23.308;2023-03-30T01:57:34;94426.75;;;3.97;48.75
49393;BME280;35268;42.642;23.308;2023-03-30T02:00:04;94421.69;;;3.86;48.85
49393;BME280;35268;42.642;23.308;2023-03-30T02:02:59;94416.13;;;3.82;49.55
49393;BME280;35268;42.642;23.308;2023-03-30T02:05:27;94409.28;;;3.81;49.15
49393;BME280;35268;42.642;23.308;2023-03-30T02:08:00;94417.47;;;3.85;49.24
49393;BME280;35268;42.642;23.308;2023-03-30T02:10:30;94420.66;;;3.92;49.55
49393;BME280;35268;42.642;23.308;2023-03-30T02:12:58;94415.34;;;3.87;50.56
49393;BME280;35268;42.642;23.308;2023-03-30T02:15:27;94424.28;;;3.80;50.73
49393;BME280;35268;42.642;23.308;2023-03-30T02:17:54;94403.97;;;3.71;51.20
49393;BME280;35268;42.642;23.308;2023-03-30T02:20:20;94429.25;;;3.72;51.20
49393;BME280;35268;42.642;23.308;2023-03-30T02:22:45;94426.09;;;3.70;51.27
49393;BME280;35268;42.642;23.308;2023-03-30T02:25:12;94412.63;;;3.66;51.28
49393;BME280;35268;42.642;23.308;2023-03-30T02:27:38;94416.31;;;3.65;51.37
49393;BME280;35268;42.642;23.308;2023-03-30T02:30:07;94414.47;;;3.66;51.04
49393;BME280;35268;42.642;23.308;2023-03-30T02:32:52;94428.97;;;3.63;51.68
49393;BME280;35268;42.642;23.308;2023-03-30T02:46:35;94435.81;;;3.64;53.94
49393;BME280;35268;42.642;23.308;2023-03-30T02:49:14;94438.19;;;3.60;55.68
49393;BME280;35268;42.642;23.308;2023-03-30T02:51:48;94436.53;;;3.49;57.18
49393;BME280;35268;42.642;23.308;2023-03-30T02:57:17;94437.81;;;3.47;56.37
49393;BME280;35268;42.642;23.308;2023-03-30T03:02:21;94431.78;;;3.51;56.43
49393;BME280;35268;42.642;23.308;2023-03-30T03:04:49;94434.72;;;3.60;56.35
49393;BME280;35268;42.642;23.308;2023-03-30T03:07:17;94434.47;;;3.56;56.98
49393;BME280;35268;42.642;23.308;2023-03-30T03:09:43;94433.41;;;3.57;58.18
49393;BME280;35268;42.642;23.308;2023-03-30T03:12:08;94440.53;;;3.57;58.41
49393;BME280;35268;42.642;23.308;2023-03-30T03:14:34;94447.38;;;3.58;58.99
49393;BME280;35268;42.642;23.308;2023-03-30T03:17:00;94443.19;;;3.62;58.83
49393;BME280;35268;42.642;23.308;2023-03-30T03:19:25;94446.09;;;3.60;58.86
49393;BME280;35268;42.642;23.308;2023-03-30T03:21:51;94439.47;;;3.58;59.18
49393;BME280;35268;42.642;23.308;2023-03-30T03:24:16;94456.56;;;3.50;59.33
49393;BME280;35268;42.642;23.308;2023-03-30T03:26:43;94450.22;;;3.51;59.17
49393;BME280;35268;42.642;23.308;2023-03-30T03:29:08;94459.28;;;3.66;59.36
49393;BME280;35268;42.642;23.308;2023-03-30T03:31:34;94455.56;;;3.56;59.61
49393;BME280;35268;42.642;23.308;2023-03-30T03:34:00;94447.06;;;3.49;60.23
49393;BME280;35268;42.642;23.308;2023-03-30T03:36:26;94445.97;;;3.40;60.69
49393;BME280;35268;42.642;23.308;2023-03-30T03:38:51;94441.19;;;3.37;61.61
49393;BME280;35268;42.642;23.308;2023-03-30T03:41:17;94447.75;;;3.34;62.27
49393;BME280;35268;42.642;23.308;2023-03-30T03:43:42;94449.88;;;3.37;62.39
49393;BME280;35268;42.642;23.308;2023-03-30T03:46:08;94450.97;;;3.41;62.45
49393;BME280;35268;42.642;23.308;2023-03-30T03:48:34;94456.75;;;3.44;62.69
49393;BME280;35268;42.642;23.308;2023-03-30T03:50:59;94456.81;;;3.49;62.65
49393;BME280;35268;42.642;23.308;2023-03-30T03:53:26;94465.50;;;3.49;62.19
49393;BME280;35268;42.642;23.308;2023-03-30T03:55:52;94468.66;;;3.46;62.63
49393;BME280;35268;42.642;23.308;2023-03-30T03:58:19;94462.88;;;3.49;62.44
49393;BME280;35268;42.642;23.308;2023-03-30T04:00:45;94460.53;;;3.53;62.47
49393;BME280;35268;42.642;23.308;2023-03-30T04:03:11;94465.81;;;3.58;61.96
49393;BME280;35268;42.642;23.308;2023-03-30T04:05:37;94476.66;;;3.61;61.64
49393;BME280;35268;42.642;23.308;2023-03-30T04:08:03;94470.84;;;3.59;62.40
49393;BME280;35268;42.642;23.308;2023-03-30T04:10:28;94456.91;;;3.64;61.64
49393;BME280;35268;42.642;23.308;2023-03-30T04:12:55;94468.78;;;3.67;61.51
49393;BME280;35268;42.642;23.308;2023-03-30T04:15:21;94462.22;;;3.69;60.70
49393;BME280;35268;42.642;23.308;2023-03-30T04:17:47;94459.59;;;3.74;60.67
49393;BME280;35268;42.642;23.308;2023-03-30T04:20:14;94461.69;;;3.72;61.01
49393;BME280;35268;42.642;23.308;2023-03-30T04:22:41;94454.66;;;3.83;60.84
49393;BME280;35268;42.642;23.308;2023-03-30T04:25:10;94458.63;;;3.86;60.83
49393;BME280;35268;42.642;23.308;2023-03-30T04:27:39;94455.44;;;3.89;60.77
49393;BME280;35268;42.642;23.308;2023-03-30T04:30:08;94456.50;;;3.88;61.10
49393;BME280;35268;42.642;23.308;2023-03-30T04:32:34;94470.25;;;3.90;61.18
49393;BME280;35268;42.642;23.308;2023-03-30T04:35:04;94454.59;;;3.73;61.54
49393;BME280;35268;42.642;23.308;2023-03-30T04:37:30;94460.63;;;3.68;61.74
49393;BME280;35268;42.642;23.308;2023-03-30T04:39:59;94459.56;;;3.69;61.98
49393;BME280;35268;42.642;23.308;2023-03-30T04:42:26;94461.19;;;3.75;61.48
49393;BME280;35268;42.642;23.308;2023-03-30T04:44:58;94458.63;;;3.86;61.37
49393;BME280;35268;42.642;23.308;2023-03-30T04:47:25;94465.75;;;3.90;60.94
49393;BME280;35268;42.642;23.308;2023-03-30T04:49:51;94458.66;;;3.96;60.72
49393;BME280;35268;42.642;23.308;2023-03-30T04:52:17;94467.13;;;3.98;60.79
49393;BME280;35268;42.642;23.308;2023-03-30T04:54:43;94474.50;;;3.96;61.09
49393;BME280;35268;42.642;23.308;2023-03-30T04:57:08;94474.53;;;4.06;61.10
49393;BME280;35268;42.642;23.308;2023-03-30T04:59:34;94471.63;;;4.02;60.09
49393;BME280;35268;42.642;23.308;2023-03-30T05:02:00;94464.81;;;4.12;60.30
49393;BME280;35268;42.642;23.308;2023-03-30T05:04:27;94466.69;;;4.21;59.70
49393;BME280;35268;42.642;23.308;2023-03-30T05:06:52;94472.22;;;4.20;59.92
49393;BME280;35268;42.642;23.308;2023-03-30T05:09:18;94475.16;;;4.24;60.31
49393;BME280;35268;42.642;23.308;2023-03-30T05:11:43;94475.16;;;4.29;60.97
49393;BME280;35268;42.642;23.308;2023-03-30T05:14:09;94487.84;;;4.32;60.99
49393;BME280;35268;42.642;23.308;2023-03-30T05:16:34;94470.44;;;4.36;60.89
49393;BME280;35268;42.642;23.308;2023-03-30T05:19:00;94476.81;;;4.40;60.71
49393;BME280;35268;42.642;23.308;2023-03-30T05:21:26;94474.16;;;4.40;60.85
49393;BME280;35268;42.642;23.308;2023-03-30T05:23:51;94477.88;;;4.44;60.34
49393;BME280;35268;42.642;23.308;2023-03-30T05:26:19;94466.78;;;4.42;59.44
49393;BME280;35268;42.642;23.308;2023-03-30T05:28:45;94484.22;;;4.48;59.77
49393;BME280;35268;42.642;23.308;2023-03-30T05:31:12;94464.66;;;4.44;59.72
49393;BME280;35268;42.642;23.308;2023-03-30T05:33:37;94466.28;;;4.50;59.61
49393;BME280;35268;42.642;23.308;2023-03-30T05:36:03;94463.09;;;4.48;59.62
49393;BME280;35268;42.642;23.308;2023-03-30T05:38:28;94462.06;;;4.59;59.56
49393;BME280;35268;42.642;23.308;2023-03-30T05:40:54;94470.03;;;4.75;59.29
49393;BME280;35268;42.642;23.308;2023-03-30T05:43:19;94467.38;;;4.80;58.43
49393;BME280;35268;42.642;23.308;2023-03-30T05:45:45;94465.81;;;4.89;58.42
49393;BME280;35268;42.642;23.308;2023-03-30T05:48:10;94470.84;;;4.91;58.63
49393;BME280;35268;42.642;23.308;2023-03-30T05:50:36;94464.78;;;4.95;58.25
49393;BME280;35268;42.642;23.308;2023-03-30T05:53:01;94474.28;;;5.07;58.24
49393;BME280;35268;42.642;23.308;2023-03-30T05:55:27;94479.06;;;5.15;58.15
49393;BME280;35268;42.642;23.308;2023-03-30T05:57:52;94478.28;;;5.25;57.94
49393;BME280;35268;42.642;23.308;2023-03-30T06:00:19;94489.63;;;5.30;57.78
49393;BME280;35268;42.642;23.308;2023-03-30T06:02:45;94494.66;;;5.32;57.94
49393;BME280;35268;42.642;23.308;2023-03-30T06:05:11;94484.91;;;5.37;57.68
49393;BME280;35268;42.642;23.308;2023-03-30T06:07:37;94490.69;;;5.45;57.19
49393;BME280;35268;42.642;23.308;2023-03-30T06:10:06;94495.47;;;5.48;57.27
49393;BME280;35268;42.642;23.308;2023-03-30T06:12:32;94510.81;;;5.56;57.56
49393;BME280;35268;42.642;23.308;2023-03-30T06:14:58;94510.28;;;5.64;57.89
49393;BME280;35268;42.642;23.308;2023-03-30T06:17:27;94507.63;;;5.64;58.00
49393;BME280;35268;42.642;23.308;2023-03-30T06:19:52;94510.00;;;5.55;58.07
49393;BME280;35268;42.642;23.308;2023-03-30T06:22:18;94519.78;;;5.50;58.58
49393;BME280;35268;42.642;23.308;2023-03-30T06:24:45;94524.56;;;5.48;59.10
49393;BME280;35268;42.642;23.308;2023-03-30T06:27:11;94519.28;;;5.48;59.36
49393;BME280;35268;42.642;23.308;2023-03-30T06:29:37;94520.56;;;5.45;59.57
49393;BME280;35268;42.642;23.308;2023-03-30T06:32:02;94528.25;;;5.47;59.45
49393;BME280;35268;42.642;23.308;2023-03-30T06:34:29;94533.03;;;5.50;59.66
49393;BME280;35268;42.642;23.308;2023-03-30T06:36:55;94531.41;;;5.49;59.37
49393;BME280;35268;42.642;23.308;2023-03-30T06:39:20;94527.72;;;5.50;59.56
49393;BME280;35268;42.642;23.308;2023-03-30T06:41:46;94531.41;;;5.59;59.51
49393;BME280;35268;42.642;23.308;2023-03-30T06:44:11;94531.16;;;5.71;59.51
49393;BME280;35268;42.642;23.308;2023-03-30T06:46:39;94528.78;;;5.85;59.04
49393;BME280;35268;42.642;23.308;2023-03-30T06:49:05;94531.16;;;5.81;59.35
49393;BME280;35268;42.642;23.308;2023-03-30T06:51:30;94527.69;;;5.91;59.11
49393;BME280;35268;42.642;23.308;2023-03-30T06:53:56;94540.69;;;5.97;59.16
49393;BME280;35268;42.642;23.308;2023-03-30T06:56:21;94537.72;;;5.94;59.62
49393;BME280;35268;42.642;23.308;2023-03-30T06:58:46;94539.34;;;6.00;59.38
49393;BME280;35268;42.642;23.308;2023-03-30T07:01:14;94544.09;;;6.08;59.58
49393;BME280;35268;42.642;23.308;2023-03-30T07:03:40;94544.59;;;6.20;59.37
49393;BME280;35268;42.642;23.308;2023-03-30T07:06:07;94544.06;;;6.34;58.83
49393;BME280;35268;42.642;23.308;2023-03-30T07:08:33;94539.50;;;6.50;57.63
49393;BME280;35268;42.642;23.308;2023-03-30T07:11:00;94536.81;;;6.55;57.41
49393;BME280;35268;42.642;23.308;2023-03-30T07:13:26;94538.38;;;6.66;57.61
49393;BME280;35268;42.642;23.308;2023-03-30T07:15:52;94542.56;;;6.77;57.13
49393;BME280;35268;42.642;23.308;2023-03-30T07:18:18;94538.22;;;6.97;56.62
49393;BME280;35268;42.642;23.308;2023-03-30T07:20:44;94540.00;;;7.12;56.12
49393;BME280;35268;42.642;23.308;2023-03-30T07:23:09;94533.59;;;7.18;56.29
49393;BME280;35268;42.642;23.308;2023-03-30T07:25:36;94549.50;;;7.18;56.06
49393;BME280;35268;42.642;23.308;2023-03-30T07:28:03;94548.66;;;7.28;55.05
49393;BME280;35268;42.642;23.308;2023-03-30T07:30:33;94541.88;;;7.51;54.73
49393;BME280;35268;42.642;23.308;2023-03-30T07:32:59;94557.72;;;7.61;53.87
49393;BME280;35268;42.642;23.308;2023-03-30T07:35:25;94542.72;;;7.75;53.72
49393;BME280;35268;42.642;23.308;2023-03-30T07:37:51;94551.59;;;7.95;53.11
49393;BME280;35268;42.642;23.308;2023-03-30T07:40:17;94550.16;;;8.08;52.76
49393;BME280;35268;42.642;23.308;2023-03-30T07:42:42;94547.22;;;8.09;52.65
49393;BME280;35268;42.642;23.308;2023-03-30T07:45:08;94541.38;;;8.12;52.84
49393;BME280;35268;42.642;23.308;2023-03-30T07:47:34;94540.25;;;8.18;53.94
49393;BME280;35268;42.642;23.308;2023-03-30T07:50:00;94537.94;;;8.36;53.52
49393;BME280;35268;42.642;23.308;2023-03-30T07:52:26;94539.84;;;8.59;53.00
49393;BME280;35268;42.642;23.308;2023-03-30T07:54:52;94531.34;;;8.81;52.18
49393;BME280;35268;42.642;23.308;2023-03-30T07:57:19;94531.72;;;8.94;50.81
49393;BME280;35268;42.642;23.308;2023-03-30T07:59:45;94528.06;;;9.09;50.95
49393;BME280;35268;42.642;23.308;2023-03-30T08:02:12;94524.81;;;9.12;50.04
49393;BME280;35268;42.642;23.308;2023-03-30T08:04:39;94537.50;;;9.20;49.85
49393;BME280;35268;42.642;23.308;2023-03-30T08:07:05;94533.88;;;9.30;49.74
49393;BME280;35268;42.642;23.308;2023-03-30T08:09:31;94543.53;;;9.44;49.39
49393;BME280;35268;42.642;23.308;2023-03-30T08:11:57;94535.03;;;9.61;48.94
49393;BME280;35268;42.642;23.308;2023-03-30T08:14:23;94539.31;;;9.76;49.07
49393;BME280;35268;42.642;23.308;2023-03-30T08:16:51;94531.66;;;9.89;48.95
49393;BME280;35268;42.642;23.308;2023-03-30T08:19:17;94533.41;;;10.12;48.56
49393;BME280;35268;42.642;23.308;2023-03-30T08:21:42;94531.53;;;10.27;47.14
49393;BME280;35268;42.642;23.308;2023-03-30T08:24:08;94531.97;;;10.34;47.08
49393;BME280;35268;42.642;23.308;2023-03-30T08:26:34;94514.03;;;10.53;46.43
49393;BME280;35268;42.642;23.308;2023-03-30T08:29:00;94527.28;;;10.58;45.97
49393;BME280;35268;42.642;23.308;2023-03-30T08:31:26;94529.03;;;10.63;44.69
49393;BME280;35268;42.642;23.308;2023-03-30T08:33:51;94531.47;;;10.32;45.36
49393;BME280;35268;42.642;23.308;2023-03-30T08:36:17;94526.91;;;10.18;46.30
49393;BME280;35268;42.642;23.308;2023-03-30T08:38:44;94529.78;;;10.22;46.61
49393;BME280;35268;42.642;23.308;2023-03-30T08:44:00;94512.63;;;10.42;45.31
49393;BME280;35268;42.642;23.308;2023-03-30T08:46:28;94519.06;;;10.41;45.56
49393;BME280;35268;42.642;23.308;2023-03-30T08:48:57;94528.72;;;10.37;45.12
49393;BME280;35268;42.642;23.308;2023-03-30T08:51:30;94521.50;;;10.37;45.71
49393;BME280;35268;42.642;23.308;2023-03-30T08:54:00;94524.88;;;10.43;44.80
49393;BME280;35268;42.642;23.308;2023-03-30T08:56:31;94525.72;;;10.24;44.40
49393;BME280;35268;42.642;23.308;2023-03-30T08:59:20;94524.97;;;10.05;45.38
49393;BME280;35268;42.642;23.308;2023-03-30T09:04:50;94519.91;;;10.22;45.19
49393;BME280;35268;42.642;23.308;2023-03-30T09:07:26;94513.22;;;10.39;44.82
49393;BME280;35268;42.642;23.308;2023-03-30T09:09:53;94516.97;;;10.66;44.42
49393;BME280;35268;42.642;23.308;2023-03-30T09:12:23;94504.94;;;10.68;43.14
49393;BME280;35268;42.642;23.308;2023-03-30T09:14:57;94500.69;;;10.67;42.27
49393;BME280;35268;42.642;23.308;2023-03-30T09:17:32;94498.53;;;10.69;41.50
49393;BME280;35268;42.642;23.308;2023-03-30T09:20:24;94491.22;;;10.75;42.16
49393;BME280;35268;42.642;23.308;2023-03-30T09:22:52;94492.50;;;10.77;42.92
49393;BME280;35268;42.642;23.308;2023-03-30T09:25:35;94497.81;;;10.91;42.41
49393;BME280;35268;42.642;23.308;2023-03-30T09:28:23;94486.50;;;11.08;42.17
49393;BME280;35268;42.642;23.308;2023-03-30T09:30:53;94486.22;;;11.10;42.06
49393;BME280;35268;42.642;23.308;2023-03-30T09:38:31;94474.09;;;10.90;38.33
49393;BME280;35268;42.642;23.308;2023-03-30T09:41:13;94477.97;;;10.70;38.87
49393;BME280;35268;42.642;23.308;2023-03-30T09:43:43;94473.63;;;10.60;39.01
49393;BME280;35268;42.642;23.308;2023-03-30T09:46:11;94464.16;;;10.40;39.22
49393;BME280;35268;42.642;23.308;2023-03-30T09:51:27;94457.66;;;10.46;39.43
49393;BME280;35268;42.642;23.308;2023-03-30T09:54:01;94463.09;;;10.41;39.95
49393;BME280;35268;42.642;23.308;2023-03-30T09:59:28;94463.88;;;10.41;39.71
49393;BME280;35268;42.642;23.308;2023-03-30T10:02:17;94462.00;;;10.42;39.37
49393;BME280;35268;42.642;23.308;2023-03-30T10:07:40;94439.81;;;10.47;39.75
49393;BME280;35268;42.642;23.308;2023-03-30T10:10:16;94458.47;;;10.47;39.31
49393;BME280;35268;42.642;23.308;2023-03-30T10:12:54;94443.34;;;10.42;39.51
49393;BME280;35268;42.642;23.308;2023-03-30T10:15:22;94452.22;;;10.51;40.58
49393;BME280;35268;42.642;23.308;2023-03-30T10:17:52;94453.63;;;10.62;40.51
49393;BME280;35268;42.642;23.308;2023-03-30T10:20:34;94453.28;;;10.64;39.69
49393;BME280;35268;42.642;23.308;2023-03-30T10:23:04;94452.63;;;10.58;40.00
49393;BME280;35268;42.642;23.308;2023-03-30T10:25:32;94449.13;;;10.72;39.46
49393;BME280;35268;42.642;23.308;2023-03-30T10:28:02;94447.94;;;10.78;38.93
49393;BME280;35268;42.642;23.308;2023-03-30T10:30:29;94433.59;;;10.88;39.74
49393;BME280;35268;42.642;23.308;2023-03-30T10:32:58;94424.13;;;10.95;38.96
49393;BME280;35268;42.642;23.308;2023-03-30T10:35:26;94427.03;;;11.08;39.07
49393;BME280;35268;42.642;23.308;2023-03-30T10:37:55;94424.22;;;11.13;38.07
49393;BME280;35268;42.642;23.308;2023-03-30T10:42:53;94414.72;;;11.20;37.83
49393;BME280;35268;42.642;23.308;2023-03-30T10:45:25;94419.28;;;11.20;38.02
49393;BME280;35268;42.642;23.308;2023-03-30T10:51:13;94413.06;;;11.11;38.90
49393;BME280;35268;42.642;23.308;2023-03-30T10:54:15;94440.81;;;11.23;38.33
49393;BME280;35268;42.642;23.308;2023-03-30T10:56:54;94416.41;;;11.16;38.31
49393;BME280;35268;42.642;23.308;2023-03-30T11:05:11;94393.44;;;11.29;38.34
49393;BME280;35268;42.642;23.308;2023-03-30T11:07:45;94407.34;;;11.40;38.07
49393;BME280;35268;42.642;23.308;2023-03-30T11:10:14;94398.38;;;11.36;37.84
49393;BME280;35268;42.642;23.308;2023-03-30T11:12:45;94387.25;;;11.20;37.94
49393;BME280;35268;42.642;23.308;2023-03-30T11:15:17;94394.06;;;11.26;37.93
49393;BME280;35268;42.642;23.308;2023-03-30T11:20:26;94389.00;;;11.24;37.66
49393;BME280;35268;42.642;23.308;2023-03-30T11:23:34;94372.72;;;11.26;37.31
49393;BME280;35268;42.642;23.308;2023-03-30T11:25:57;94380.28;;;11.33;37.23
49393;BME280;35268;42.642;23.308;2023-03-30T11:28:38;94373.13;;;11.42;37.16
49393;BME280;35268;42.642;23.308;2023-03-30T11:34:06;94362.84;;;11.89;37.02
49393;BME280;35268;42.642;23.308;2023-03-30T11:36:47;94363.34;;;11.91;35.65
49393;BME280;35268;42.642;23.308;2023-03-30T11:39:17;94347.16;;;11.96;35.20
49393;BME280;35268;42.642;23.308;2023-03-30T11:41:53;94341.53;;;12.07;34.63
49393;BME280;35268;42.642;23.308;2023-03-30T11:44:20;94343.13;;;12.08;35.68
49393;BME280;35268;42.642;23.308;2023-03-30T12:03:41;94323.19;;;12.31;34.43
49393;BME280;35268;42.642;23.308;2023-03-30T12:28:01;94290.84;;;12.50;33.99
49393;BME280;35268;42.642;23.308;2023-03-30T12:31:14;94274.78;;;12.76;33.84
49393;BME280;35268;42.642;23.308;2023-03-30T12:33:18;94281.28;;;13.22;36.13
49393;BME280;35268;42.642;23.308;2023-03-30T12:38:18;94276.41;;;13.42;32.77
49393;BME280;35268;42.642;23.308;2023-03-30T12:40:46;94271.19;;;13.46;32.81
49393;BME280;35268;42.642;23.308;2023-03-30T12:43:27;94259.78;;;13.66;32.40
49393;BME280;35268;42.642;23.308;2023-03-30T12:46:07;94260.78;;;13.82;32.35
49393;BME280;35268;42.642;23.308;2023-03-30T12:49:00;94264.25;;;13.83;32.27
49393;BME280;35268;42.642;23.308;2023-03-30T12:51:55;94261.06;;;13.90;32.72
49393;BME280;35268;42.642;23.308;2023-03-30T13:05:29;94241.63;;;14.22;31.50
49393;BME280;35268;42.642;23.308;2023-03-30T13:08:02;94229.59;;;14.29;31.27
49393;BME280;35268;42.642;23.308;2023-03-30T13:12:58;94228.09;;;14.61;30.87
49393;BME280;35268;42.642;23.308;2023-03-30T13:18:01;94203.88;;;15.15;30.64
49393;BME280;35268;42.642;23.308;2023-03-30T13:20:35;94200.56;;;15.68;30.00
49393;BME280;35268;42.642;23.308;2023-03-30T13:23:24;94204.84;;;15.81;28.68
49393;BME280;35268;42.642;23.308;2023-03-30T13:26:01;94196.09;;;15.96;28.33
49393;BME280;35268;42.642;23.308;2023-03-30T13:31:39;94189.28;;;15.74;28.25
49393;BME280;35268;42.642;23.308;2023-03-30T13:36:39;94176.94;;;15.49;28.99
49393;BME280;35268;42.642;23.308;2023-03-30T13:39:28;94176.63;;;15.75;29.04
49393;BME280;35268;42.642;23.308;2023-03-30T13:50:04;94167.25;;;16.21;28.53
49393;BME280;35268;42.642;23.308;2023-03-30T13:52:38;94165.16;;;16.43;27.63
49393;BME280;35268;42.642;23.308;2023-03-30T13:55:16;94159.78;;;16.43;27.96
49393;BME280;35268;42.642;23.308;2023-03-30T13:57:43;94162.41;;;16.27;27.91
49393;BME280;35268;42.642;23.308;2023-03-30T14:02:46;94157.25;;;16.22;28.37
49393;BME280;35268;42.642;23.308;2023-03-30T14:05:24;94149.41;;;16.57;28.17
49393;BME280;35268;42.642;23.308;2023-03-30T14:07:55;94155.75;;;17.09;26.81
49393;BME280;35268;42.642;23.308;2023-03-30T14:10:20;94146.28;;;17.63;26.74
49393;BME280;35268;42.642;23.308;2023-03-30T14:12:55;94148.72;;;18.62;25.85
49393;BME280;35268;42.642;23.308;2023-03-30T14:15:24;94150.91;;;20.18;23.28
49393;BME280;35268;42.642;23.308;2023-03-30T14:17:57;94145.31;;;20.64;21.97
49393;BME280;35268;42.642;23.308;2023-03-30T14:20:29;94150.63;;;20.27;22.50
49393;BME280;35268;42.642;23.308;2023-03-30T14:23:02;94142.47;;;19.70;22.99
49393;BME280;35268;42.642;23.308;2023-03-30T14:25:34;94149.06;;;18.99;23.75
49393;BME280;35268;42.642;23.308;2023-03-30T14:28:18;94154.66;;;18.48;24.42
49393;BME280;35268;42.642;23.308;2023-03-30T14:31:12;94153.69;;;18.01;25.63
49393;BME280;35268;42.642;23.308;2023-03-30T14:33:39;94155.47;;;17.62;25.71
49393;BME280;35268;42.642;23.308;2023-03-30T14:36:05;94150.03;;;17.42;26.22
49393;BME280;35268;42.642;23.308;2023-03-30T14:38:38;94142.38;;;17.13;26.76
49393;BME280;35268;42.642;23.308;2023-03-30T14:41:23;94146.03;;;17.20;26.25
49393;BME280;35268;42.642;23.308;2023-03-30T14:44:10;94145.09;;;17.13;26.03
49393;BME280;35268;42.642;23.308;2023-03-30T14:46:37;94142.66;;;17.08;26.34
49393;BME280;35268;42.642;23.308;2023-03-30T14:49:04;94133.53;;;17.28;26.25
49393;BME280;35268;42.642;23.308;2023-03-30T14:51:37;94131.53;;;17.41;26.01
49393;BME280;35268;42.642;23.308;2023-03-30T14:54:05;94124.13;;;17.38;26.01
49393;BME280;35268;42.642;23.308;2023-03-30T14:56:31;94121.97;;;17.28;26.72
49393;BME280;35268;42.642;23.308;2023-03-30T14:58:57;94124.50;;;17.04;26.27
49393;BME280;35268;42.642;23.308;2023-03-30T15:01:28;94125.34;;;16.93;27.01
49393;BME280;35268;42.642;23.308;2023-03-30T15:04:05;94115.00;;;16.95;27.00
49393;BME280;35268;42.642;23.308;2023-03-30T15:06:31;94125.34;;;17.40;27.21
49393;BME280;35268;42.642;23.308;2023-03-30T15:09:01;94113.97;;;18.18;25.99
49393;BME280;35268;42.642;23.308;2023-03-30T15:11:28;94117.78;;;18.98;25.61
49393;BME280;35268;42.642;23.308;2023-03-30T15:13:57;94108.53;;;20.33;23.22
49393;BME280;35268;42.642;23.308;2023-03-30T15:16:29;94105.56;;;21.64;21.37
49393;BME280;35268;42.642;23.308;2023-03-30T15:19:09;94104.97;;;22.84;20.61
49393;BME280;35268;42.642;23.308;2023-03-30T15:21:36;94101.53;;;23.73;19.52
49393;BME280;35268;42.642;23.308;2023-03-30T15:24:07;94095.97;;;24.31;18.79
49393;BME280;35268;42.642;23.308;2023-03-30T15:26:45;94102.66;;;24.96;18.45
49393;BME280;35268;42.642;23.308;2023-03-30T15:29:13;94109.97;;;25.66;17.47
49393;BME280;35268;42.642;23.308;2023-03-30T15:31:42;94097.75;;;26.19;17.03
49393;BME280;35268;42.642;23.308;2023-03-30T15:34:15;94092.91;;;26.34;17.07
49393;BME280;35268;42.642;23.308;2023-03-30T15:36:41;94091.09;;;26.55;16.60
49393;BME280;35268;42.642;23.308;2023-03-30T15:39:36;94090.34;;;26.54;16.63
49393;BME280;35268;42.642;23.308;2023-03-30T15:42:12;94086.25;;;26.70;16.40
49393;BME280;35268;42.642;23.308;2023-03-30T15:44:47;94084.56;;;26.79;16.02